createdAt,value
2023-02-12T00:00:47.939Z,33.00
2023-02-12T00:02:52.831Z,34.20
2023-02-12T00:04:57.744Z,34.60
2023-02-12T00:07:02.757Z,34.90
2023-02-12T00:09:07.823Z,35.10
2023-02-12T00:11:15.809Z,35.80
2023-02-12T00:13:20.752Z,36.60
2023-02-12T00:15:26.303Z,37.30
2023-02-12T00:17:33.884Z,37.40
2023-02-12T00:19:39.791Z,38.10
2023-02-12T00:21:44.707Z,38.00
2023-02-12T00:23:50.870Z,38.70
2023-02-12T00:25:55.972Z,38.80
2023-02-12T00:28:01.178Z,38.90
2023-02-12T00:30:06.983Z,39.20
2023-02-12T00:32:14.293Z,39.70
2023-02-12T00:34:22.230Z,39.30
2023-02-12T00:36:30.633Z,39.60
2023-02-12T00:38:36.019Z,39.80
2023-02-12T00:40:42.794Z,39.60
2023-02-12T00:42:48.513Z,39.60
2023-02-12T00:44:53.439Z,39.60
2023-02-12T00:47:02.769Z,39.80
2023-02-12T00:49:07.711Z,39.60
2023-02-12T00:51:16.267Z,40.00
2023-02-12T00:53:21.270Z,40.10
2023-02-12T00:55:26.204Z,43.10
2023-02-12T00:57:31.253Z,39.80
2023-02-12T00:59:37.905Z,39.80
2023-02-12T01:01:43.186Z,40.00
2023-02-12T01:03:48.478Z,39.60
2023-02-12T01:05:54.924Z,40.30
2023-02-12T01:08:02.960Z,39.60
2023-02-12T01:10:12.403Z,39.10
2023-02-12T01:12:17.703Z,39.30
2023-02-12T01:14:22.648Z,39.30
2023-02-12T01:16:28.054Z,40.30
2023-02-12T01:18:34.471Z,40.00
2023-02-12T01:20:39.422Z,40.00
2023-02-12T01:22:45.056Z,39.90
2023-02-12T01:24:52.590Z,39.70
2023-02-12T01:26:57.945Z,39.50
2023-02-12T01:29:06.844Z,39.50
2023-02-12T01:31:13.942Z,39.70
2023-02-12T01:33:18.991Z,39.20
2023-02-12T01:35:24.000Z,39.30
2023-02-12T01:37:29.037Z,39.40
2023-02-12T01:39:34.771Z,38.90
2023-02-12T01:41:45.265Z,38.60
2023-02-12T01:44:14.299Z,38.90
2023-02-12T01:46:19.288Z,39.50
2023-02-12T01:48:29.257Z,38.30
2023-02-12T01:50:34.609Z,39.10
2023-02-12T01:52:43.000Z,39.60
2023-02-12T01:54:49.307Z,39.20
2023-02-12T01:56:58.657Z,38.50
2023-02-12T01:59:04.825Z,38.80
2023-02-12T02:01:15.870Z,38.60
2023-02-12T02:03:21.491Z,39.10
2023-02-12T02:05:36.450Z,38.20
2023-02-12T02:07:41.980Z,38.10
2023-02-12T02:09:48.816Z,38.90
2023-02-12T02:12:06.394Z,38.00
2023-02-12T02:14:27.039Z,38.60
2023-02-12T02:16:33.558Z,38.30
2023-02-12T02:18:49.838Z,39.30
2023-02-12T02:21:37.249Z,39.60
2023-02-12T02:24:19.108Z,40.20
2023-02-12T02:26:57.639Z,40.50
2023-02-12T02:29:23.481Z,43.10
2023-02-12T02:31:41.871Z,39.30
2023-02-12T02:33:58.543Z,39.90
2023-02-12T02:36:19.177Z,39.70
2023-02-12T02:38:32.507Z,38.00
2023-02-12T02:40:48.151Z,38.10
2023-02-12T02:43:08.078Z,38.70
2023-02-12T02:45:18.659Z,39.00
2023-02-12T02:47:35.773Z,38.90
2023-02-12T02:49:46.793Z,36.30
2023-02-12T02:51:58.914Z,38.90
2023-02-12T02:54:11.964Z,39.50
2023-02-12T02:56:20.525Z,39.50
2023-02-12T02:58:30.167Z,38.80
2023-02-12T03:00:41.471Z,38.60
2023-02-12T03:02:53.892Z,38.30
2023-02-12T03:05:05.117Z,37.30
2023-02-12T03:07:19.397Z,37.50
2023-02-12T03:09:30.853Z,37.20
2023-02-12T03:11:37.641Z,36.30
2023-02-12T03:13:50.285Z,35.60
2023-02-12T03:15:59.366Z,36.30
2023-02-12T03:18:12.632Z,36.80
2023-02-12T03:20:21.789Z,35.90
2023-02-12T03:22:32.346Z,36.40
2023-02-12T03:24:43.156Z,35.60
2023-02-12T03:26:54.257Z,36.60
2023-02-12T03:28:59.965Z,36.70
2023-02-12T03:31:13.542Z,36.70
2023-02-12T03:33:38.755Z,36.20
2023-02-12T03:35:54.171Z,36.80
2023-02-12T03:38:07.517Z,36.40
2023-02-12T03:40:20.936Z,37.20
2023-02-12T03:42:37.914Z,37.10
2023-02-12T03:44:55.530Z,37.70
2023-02-12T03:47:08.698Z,37.40
2023-02-12T03:49:25.929Z,37.20
2023-02-12T03:51:37.611Z,36.80
2023-02-12T03:53:44.234Z,36.50
2023-02-12T03:55:57.307Z,36.40
2023-02-12T03:58:06.160Z,37.20
2023-02-12T04:00:17.498Z,37.70
2023-02-12T04:02:25.554Z,37.70
2023-02-12T04:04:33.875Z,37.80
2023-02-12T04:06:39.944Z,36.60
2023-02-12T04:08:45.716Z,37.70
2023-02-12T04:11:04.116Z,36.50
2023-02-12T04:13:22.027Z,37.60
2023-02-12T04:15:47.050Z,37.50
2023-02-12T04:18:01.061Z,37.30
2023-02-12T04:20:21.568Z,37.30
2023-02-12T04:22:45.405Z,37.30
2023-02-12T04:25:02.339Z,37.20
2023-02-12T04:27:14.360Z,37.20
2023-02-12T04:29:29.563Z,37.30
2023-02-12T04:31:43.023Z,37.50
2023-02-12T04:33:55.993Z,36.80
2023-02-12T04:36:09.411Z,36.60
2023-02-12T04:38:22.345Z,36.50
2023-02-12T04:40:27.611Z,36.00
2023-02-12T04:42:33.804Z,35.50
2023-02-12T04:44:42.841Z,36.10
2023-02-12T04:46:48.682Z,36.50
2023-02-12T04:48:57.389Z,36.90
2023-02-12T04:51:05.534Z,37.40
2023-02-12T04:53:11.106Z,35.80
2023-02-12T04:55:17.152Z,34.60
2023-02-12T04:57:22.530Z,35.30
2023-02-12T04:59:28.617Z,35.10
2023-02-12T05:01:33.823Z,35.60
2023-02-12T05:03:39.238Z,33.70
2023-02-12T05:05:45.377Z,33.80
2023-02-12T05:07:52.956Z,34.00
2023-02-12T05:09:58.163Z,34.00
2023-02-12T05:12:04.068Z,34.50
2023-02-12T05:14:09.261Z,32.20
2023-02-12T05:16:14.183Z,31.40
2023-02-12T05:18:19.464Z,32.70
2023-02-12T05:20:24.395Z,34.40
2023-02-12T05:22:29.346Z,33.70
2023-02-12T05:24:37.108Z,33.50
2023-02-12T05:26:41.974Z,31.10
2023-02-12T05:28:47.766Z,31.50
2023-02-12T05:30:52.744Z,31.90
2023-02-12T05:32:58.072Z,32.10
2023-02-12T05:35:04.048Z,31.10
2023-02-12T05:37:08.970Z,31.10
2023-02-12T05:39:14.295Z,31.50
2023-02-12T05:41:25.977Z,31.60
2023-02-12T05:43:30.837Z,31.10
2023-02-12T05:45:36.188Z,31.70
2023-02-12T05:47:42.142Z,30.20
2023-02-12T05:49:47.016Z,31.80
2023-02-12T05:51:52.671Z,33.20
2023-02-12T05:54:04.300Z,35.70
2023-02-12T05:56:24.488Z,38.80
2023-02-12T05:58:29.350Z,41.00
2023-02-12T06:00:34.570Z,43.40
2023-02-12T06:02:40.505Z,44.60
2023-02-12T06:04:48.520Z,44.30
2023-02-12T06:06:53.951Z,45.20
2023-02-12T06:09:00.234Z,45.30
2023-02-12T06:11:06.950Z,45.50
2023-02-12T06:13:14.724Z,46.40
2023-02-12T06:15:19.776Z,46.70
2023-02-12T06:17:25.096Z,46.40
2023-02-12T06:19:29.975Z,46.20
2023-02-12T06:21:36.355Z,46.30
2023-02-12T06:23:42.156Z,47.00
2023-02-12T06:25:47.040Z,46.80
2023-02-12T06:27:51.890Z,47.70
2023-02-12T06:30:00.454Z,47.50
2023-02-12T06:32:07.332Z,48.60
2023-02-12T06:34:17.998Z,49.60
2023-02-12T06:36:24.226Z,49.30
2023-02-12T06:38:29.175Z,50.10
2023-02-12T06:40:34.054Z,50.80
2023-02-12T06:42:39.721Z,52.80
2023-02-12T06:44:45.685Z,54.20
2023-02-12T06:46:53.706Z,55.20
2023-02-12T06:49:01.489Z,55.50
2023-02-12T06:51:11.572Z,55.90
2023-02-12T06:53:17.068Z,56.50
2023-02-12T06:55:22.172Z,56.70
2023-02-12T06:57:27.108Z,57.00
2023-02-12T06:59:32.234Z,56.60
2023-02-12T07:01:38.439Z,56.90
2023-02-12T07:03:47.780Z,57.30
2023-02-12T07:05:53.251Z,57.50
2023-02-12T07:07:59.899Z,57.90
2023-02-12T07:10:04.882Z,57.70
2023-02-12T07:12:11.378Z,57.50
2023-02-12T07:14:18.679Z,58.20
2023-02-12T07:16:24.406Z,59.00
2023-02-12T07:18:29.909Z,59.80
2023-02-12T07:20:40.020Z,59.80
2023-02-12T07:22:44.947Z,60.40
2023-02-12T07:24:50.982Z,61.10
2023-02-12T07:26:56.373Z,62.00
2023-02-12T07:29:01.952Z,62.80
2023-02-12T07:31:10.931Z,62.90
2023-02-12T07:33:16.368Z,63.90
2023-02-12T07:35:21.685Z,65.70
2023-02-12T07:37:29.230Z,66.90
2023-02-12T07:39:34.090Z,67.80
2023-02-12T07:41:40.216Z,68.40
2023-02-12T07:43:48.782Z,69.10
2023-02-12T07:45:53.977Z,72.60
2023-02-12T07:47:58.985Z,73.40
2023-02-12T07:50:03.926Z,74.00
2023-02-12T07:52:09.677Z,75.70
2023-02-12T07:54:19.103Z,80.80
2023-02-12T07:56:29.609Z,81.00
2023-02-12T07:58:34.462Z,84.40
2023-02-12T08:00:40.371Z,86.80
2023-02-12T08:02:45.364Z,88.60
2023-02-12T08:04:50.673Z,90.00
2023-02-12T08:06:58.641Z,90.60
2023-02-12T08:09:07.324Z,91.30
2023-02-12T08:11:18.528Z,91.60
2023-02-12T08:13:23.431Z,91.80
2023-02-12T08:15:28.873Z,92.00
2023-02-12T08:17:34.604Z,91.90
2023-02-12T08:19:39.766Z,92.30
2023-02-12T08:21:45.766Z,92.20
2023-02-12T08:23:52.460Z,92.20
2023-02-12T08:25:57.535Z,92.90
2023-02-12T08:28:05.125Z,93.30
2023-02-12T08:30:15.380Z,93.30
2023-02-12T08:32:20.424Z,95.50
2023-02-12T08:34:27.941Z,95.40
2023-02-12T08:36:39.329Z,96.00
2023-02-12T08:38:45.187Z,96.50
2023-02-12T08:40:50.857Z,96.50
2023-02-12T08:42:56.480Z,96.60
2023-02-12T08:45:03.971Z,98.30
2023-02-12T08:47:10.166Z,97.30
2023-02-12T08:49:18.403Z,97.60
2023-02-12T08:51:26.374Z,97.90
2023-02-12T08:53:31.146Z,98.00
2023-02-12T08:55:36.945Z,98.00
2023-02-12T08:57:41.956Z,98.00
2023-02-12T08:59:47.374Z,98.10
2023-02-12T09:01:56.716Z,97.90
2023-02-12T09:04:02.222Z,98.00
2023-02-12T09:06:10.437Z,97.90
2023-02-12T09:08:15.370Z,98.10
2023-02-12T09:10:21.102Z,98.20
2023-02-12T09:12:26.182Z,98.30
2023-02-12T09:14:31.201Z,98.50
2023-02-12T09:16:39.696Z,98.90
2023-02-12T09:18:48.426Z,99.00
2023-02-12T09:20:53.303Z,98.80
2023-02-12T09:22:58.181Z,99.10
2023-02-12T09:25:03.118Z,99.40
2023-02-12T09:27:08.016Z,99.40
2023-02-12T09:29:13.192Z,99.80
2023-02-12T09:31:23.135Z,99.90
2023-02-12T09:33:28.129Z,99.90
2023-02-12T09:35:38.406Z,99.90
2023-02-12T09:37:44.848Z,99.90
2023-02-12T09:39:51.275Z,99.90
2023-02-12T09:42:24.677Z,99.90
2023-02-12T09:44:39.933Z,99.90
2023-02-12T09:46:51.634Z,99.90
2023-02-12T09:49:11.819Z,99.90
2023-02-12T09:51:19.477Z,99.90
2023-02-12T09:53:28.394Z,99.90
2023-02-12T09:55:36.697Z,99.90
2023-02-12T09:57:42.034Z,99.90
2023-02-12T09:59:51.956Z,99.80
2023-02-12T10:01:56.877Z,98.60
2023-02-12T10:04:02.951Z,95.80
2023-02-12T10:06:11.664Z,95.00
2023-02-12T10:09:02.928Z,94.40
2023-02-12T10:11:31.692Z,93.50
2023-02-12T10:13:46.815Z,94.20
2023-02-12T10:15:59.807Z,90.60
2023-02-12T10:18:23.107Z,90.40
2023-02-12T10:20:57.042Z,87.20
2023-02-12T10:23:26.436Z,82.70
2023-02-12T10:25:48.159Z,78.90
2023-02-12T10:27:56.708Z,70.60
2023-02-12T10:30:02.326Z,70.40
2023-02-12T10:32:14.534Z,64.90
2023-02-12T10:34:25.335Z,67.20
2023-02-12T10:36:44.976Z,69.10
2023-02-12T10:38:58.238Z,70.50
2023-02-12T10:41:06.471Z,63.80
2023-02-12T10:43:16.455Z,50.60
2023-02-12T10:45:24.461Z,58.80
2023-02-12T10:47:29.513Z,57.60
2023-02-12T10:49:35.612Z,56.80
2023-02-12T10:51:58.603Z,54.10
2023-02-12T10:54:41.166Z,52.10
2023-02-12T10:56:48.705Z,43.80
2023-02-12T10:58:59.884Z,28.90
2023-02-12T11:01:06.964Z,26.00
2023-02-12T11:03:24.678Z,16.60
2023-02-12T11:05:33.791Z,19.90
2023-02-12T11:07:52.639Z,24.40
2023-02-12T11:09:59.835Z,16.70
2023-02-12T11:12:20.280Z,7.80
2023-02-12T11:14:25.594Z,1.00
2023-02-12T11:16:33.583Z,6.60
2023-02-12T11:18:39.920Z,8.20
2023-02-12T11:20:54.205Z,9.40
2023-02-12T11:23:01.688Z,11.40
2023-02-12T11:25:19.666Z,1.00
2023-02-12T11:27:32.319Z,1.00
2023-02-12T11:29:37.587Z,2.80
2023-02-12T11:31:43.027Z,6.60
2023-02-12T11:33:48.250Z,1.00
2023-02-12T11:35:56.954Z,1.00
2023-02-12T11:38:03.516Z,1.00
2023-02-12T11:40:19.073Z,1.00
2023-02-12T11:42:29.733Z,1.00
2023-02-12T11:44:39.775Z,1.00
2023-02-12T11:46:51.740Z,1.00
2023-02-12T11:49:01.298Z,1.00
2023-02-12T11:51:10.021Z,1.00
2023-02-12T11:53:26.356Z,1.00
2023-02-12T11:55:35.338Z,1.00
2023-02-12T11:57:49.144Z,1.00
2023-02-12T11:59:56.425Z,1.00
2023-02-12T12:02:08.437Z,1.00
2023-02-12T12:04:20.221Z,1.00
2023-02-12T12:06:34.384Z,1.00
2023-02-12T12:08:48.334Z,1.00
2023-02-12T12:11:02.624Z,1.00
2023-02-12T12:13:25.085Z,1.00
2023-02-12T12:15:51.229Z,1.00
2023-02-12T12:18:21.319Z,1.00
2023-02-12T12:20:32.717Z,1.00
2023-02-12T12:22:52.510Z,1.00
2023-02-12T12:25:05.342Z,1.00
2023-02-12T12:27:47.611Z,1.00
2023-02-12T12:30:06.800Z,1.00
2023-02-12T12:32:15.765Z,1.00
2023-02-12T12:34:23.767Z,1.00
2023-02-12T12:36:54.512Z,1.00
2023-02-12T12:39:09.739Z,1.00
2023-02-12T12:41:28.426Z,1.00
2023-02-12T12:43:45.565Z,1.00
2023-02-12T12:46:24.751Z,1.00
2023-02-12T12:48:55.261Z,1.00
2023-02-12T12:51:22.203Z,1.00
2023-02-12T12:53:45.343Z,1.00
2023-02-12T12:56:10.201Z,1.00
2023-02-12T12:58:25.512Z,1.00
2023-02-12T13:00:55.291Z,1.00
2023-02-12T13:03:42.638Z,1.00
2023-02-12T13:06:18.975Z,1.00
2023-02-12T13:08:53.083Z,1.00
2023-02-12T13:11:03.252Z,1.00
2023-02-12T13:13:27.246Z,1.00
2023-02-12T13:15:40.900Z,1.00
2023-02-12T13:17:54.207Z,1.00
2023-02-12T13:20:18.080Z,1.00
2023-02-12T13:22:32.254Z,1.00
2023-02-12T13:24:45.963Z,1.00
2023-02-12T13:26:57.451Z,1.00
2023-02-12T13:29:09.079Z,1.00
2023-02-12T13:31:32.537Z,1.00
2023-02-12T13:33:45.917Z,1.00
2023-02-12T13:35:59.482Z,1.00
2023-02-12T13:38:08.668Z,1.00
2023-02-12T13:40:20.431Z,1.00
2023-02-12T13:42:45.713Z,1.00
2023-02-12T13:44:59.955Z,1.00
2023-02-12T13:47:15.307Z,1.00
2023-02-12T13:49:32.798Z,1.00
2023-02-12T13:51:47.185Z,1.00
2023-02-12T13:54:07.746Z,1.00
2023-02-12T13:56:35.645Z,1.00
2023-02-12T13:59:00.855Z,1.00
2023-02-12T14:01:10.038Z,1.00
2023-02-12T14:03:16.320Z,1.00
2023-02-12T14:05:30.069Z,1.00
2023-02-12T14:07:50.176Z,1.00
2023-02-12T14:10:09.245Z,1.00
2023-02-12T14:12:20.045Z,1.00
2023-02-12T14:14:34.141Z,1.00
2023-02-12T14:16:43.437Z,1.00
2023-02-12T14:18:48.314Z,1.00
2023-02-12T14:21:43.765Z,1.00
2023-02-12T14:23:52.947Z,1.00
2023-02-12T14:26:09.259Z,1.00
2023-02-12T14:28:50.134Z,1.00
2023-02-12T14:31:45.957Z,1.00
2023-02-12T14:33:54.000Z,1.00
2023-02-12T14:36:22.468Z,1.00
2023-02-12T14:39:26.785Z,1.00
2023-02-12T14:41:41.936Z,1.00
2023-02-12T14:44:05.229Z,1.00
2023-02-12T14:46:55.717Z,1.00
2023-02-12T14:49:05.956Z,1.00
2023-02-12T14:51:22.681Z,1.00
2023-02-12T14:53:34.173Z,1.00
2023-02-12T14:55:48.557Z,1.00
2023-02-12T14:57:59.290Z,1.00
2023-02-12T15:00:17.582Z,1.00
2023-02-12T15:02:29.361Z,1.00
2023-02-12T15:04:39.686Z,1.00
2023-02-12T15:06:53.925Z,1.00
2023-02-12T15:09:05.385Z,1.00
2023-02-12T15:11:29.572Z,1.00
2023-02-12T15:13:50.237Z,1.00
2023-02-12T15:16:00.301Z,1.00
2023-02-12T15:18:15.378Z,1.00
2023-02-12T15:20:26.239Z,1.00
2023-02-12T15:22:35.929Z,1.00
2023-02-12T15:24:40.811Z,1.00
2023-02-12T15:26:52.281Z,1.00
2023-02-12T15:28:57.600Z,1.00
2023-02-12T15:31:04.011Z,1.00
2023-02-12T15:33:10.687Z,1.00
2023-02-12T15:35:28.225Z,1.00
2023-02-12T15:37:35.276Z,1.00
2023-02-12T15:39:46.165Z,1.00
2023-02-12T15:41:53.970Z,1.00
2023-02-12T15:43:59.399Z,1.00
2023-02-12T15:46:06.329Z,1.00
2023-02-12T15:48:18.342Z,1.00
2023-02-12T15:50:24.061Z,1.00
2023-02-12T15:52:37.276Z,1.00
2023-02-12T15:54:42.643Z,1.00
2023-02-12T15:56:48.278Z,1.00
2023-02-12T15:58:57.542Z,1.00
2023-02-12T16:01:06.009Z,1.00
2023-02-12T16:03:27.003Z,1.00
2023-02-12T16:05:35.181Z,1.00
2023-02-12T16:07:41.769Z,1.00
2023-02-12T16:09:47.434Z,1.00
2023-02-12T16:11:53.512Z,1.00
2023-02-12T16:14:05.549Z,1.00
2023-02-12T16:16:21.096Z,1.00
2023-02-12T16:18:28.118Z,1.00
2023-02-12T16:20:34.941Z,1.00
2023-02-12T16:22:42.613Z,1.00
2023-02-12T16:24:52.425Z,1.00
2023-02-12T16:26:59.806Z,1.00
2023-02-12T16:29:08.013Z,1.00
2023-02-12T16:31:16.433Z,1.00
2023-02-12T16:33:38.607Z,1.00
2023-02-12T16:35:43.495Z,1.00
2023-02-12T16:37:51.780Z,1.00
2023-02-12T16:40:28.842Z,1.00
2023-02-12T16:42:34.428Z,1.00
2023-02-12T16:44:42.013Z,1.00
2023-02-12T16:46:51.935Z,1.00
2023-02-12T16:48:59.470Z,1.00
2023-02-12T16:51:06.233Z,1.00
2023-02-12T16:53:28.978Z,1.00
2023-02-12T16:55:35.204Z,1.00
2023-02-12T16:57:40.147Z,1.00
2023-02-12T16:59:47.967Z,1.00
2023-02-12T17:02:05.795Z,1.00
2023-02-12T17:04:17.466Z,1.00
2023-02-12T17:06:24.972Z,1.00
2023-02-12T17:08:32.014Z,1.00
2023-02-12T17:10:36.910Z,1.00
2023-02-12T17:12:49.289Z,1.00
2023-02-12T17:14:57.167Z,1.00
2023-02-12T17:17:02.005Z,1.00
2023-02-12T17:19:07.051Z,1.00
2023-02-12T17:21:23.878Z,1.00
2023-02-12T17:23:30.052Z,1.00
2023-02-12T17:25:36.546Z,1.00
2023-02-12T17:27:41.541Z,1.00
2023-02-12T17:29:46.465Z,1.00
2023-02-12T17:31:55.899Z,1.00
2023-02-12T17:34:01.691Z,1.00
2023-02-12T17:36:07.807Z,1.00
2023-02-12T17:38:12.882Z,1.00
2023-02-12T17:40:18.109Z,1.00
2023-02-12T17:42:23.072Z,1.00
2023-02-12T17:44:27.986Z,1.00
2023-02-12T17:46:33.470Z,1.00
2023-02-12T17:48:41.231Z,1.00
2023-02-12T17:50:46.850Z,1.00
2023-02-12T17:52:52.322Z,1.00
2023-02-12T17:54:57.224Z,1.00
2023-02-12T17:57:02.124Z,1.00
2023-02-12T17:59:07.268Z,1.00
2023-02-12T18:01:16.604Z,1.00
2023-02-12T18:03:21.572Z,1.00
2023-02-12T18:05:29.185Z,1.00
2023-02-12T18:07:36.227Z,1.00
2023-02-12T18:09:41.334Z,1.00
2023-02-12T18:11:46.465Z,1.00
2023-02-12T18:13:55.687Z,1.00
2023-02-12T18:16:01.397Z,1.00
2023-02-12T18:18:06.814Z,1.00
2023-02-12T18:20:13.730Z,1.20
2023-02-12T18:22:21.271Z,1.50
2023-02-12T18:24:26.512Z,1.80
2023-02-12T18:26:31.420Z,1.70
2023-02-12T18:28:36.794Z,2.40
2023-02-12T18:30:43.447Z,1.00
2023-02-12T18:32:48.447Z,1.00
2023-02-12T18:34:53.863Z,2.60
2023-02-12T18:36:58.897Z,2.40
2023-02-12T18:39:06.641Z,2.60
2023-02-12T18:41:13.883Z,1.00
2023-02-12T18:43:19.019Z,2.00
2023-02-12T18:45:23.958Z,2.10
2023-02-12T18:47:29.007Z,1.80
2023-02-12T18:49:34.760Z,1.00
2023-02-12T18:51:41.070Z,1.20
2023-02-12T18:53:46.532Z,1.30
2023-02-12T18:55:54.284Z,1.60
2023-02-12T18:57:59.223Z,2.70
2023-02-12T19:00:04.998Z,2.70
2023-02-12T19:02:11.330Z,1.90
2023-02-12T19:04:18.436Z,2.30
2023-02-12T19:06:23.498Z,2.10
2023-02-12T19:08:29.527Z,2.50
2023-02-12T19:10:34.480Z,2.50
2023-02-12T19:12:44.321Z,2.10
2023-02-12T19:14:50.543Z,1.10
2023-02-12T19:16:56.527Z,1.30
2023-02-12T19:19:02.793Z,1.80
2023-02-12T19:21:10.348Z,1.00
2023-02-12T19:23:15.647Z,2.10
2023-02-12T19:25:21.252Z,1.10
2023-02-12T19:27:26.513Z,1.40
2023-02-12T19:29:34.865Z,1.70
2023-02-12T19:31:42.405Z,1.90
2023-02-12T19:33:49.294Z,2.10
2023-02-12T19:35:54.360Z,1.10
2023-02-12T19:40:07.211Z,1.00
2023-02-12T19:42:15.126Z,1.10
2023-02-12T19:44:24.259Z,1.00
2023-02-12T19:46:33.970Z,1.00
2023-02-12T19:50:49.113Z,1.20
2023-02-12T19:52:54.088Z,1.30
2023-02-12T19:54:59.761Z,2.30
2023-02-12T19:57:09.448Z,2.40
2023-02-12T19:59:17.508Z,1.20
2023-02-12T20:01:23.663Z,1.30
2023-02-12T20:03:31.681Z,1.00
2023-02-12T20:05:42.527Z,1.00
2023-02-12T20:07:47.478Z,1.00
2023-02-12T20:09:55.304Z,1.00
2023-02-12T20:12:00.337Z,1.00
2023-02-12T20:14:05.483Z,1.00
2023-02-12T20:16:16.246Z,1.00
2023-02-12T20:18:21.246Z,1.00
2023-02-12T20:20:29.124Z,1.00
2023-02-12T20:22:34.285Z,1.00
2023-02-12T20:24:39.230Z,1.00
2023-02-12T20:26:44.277Z,1.00
2023-02-12T20:28:50.235Z,1.00
2023-02-12T20:30:55.663Z,1.00
2023-02-12T20:33:01.566Z,1.00
2023-02-12T20:35:06.774Z,1.00
2023-02-12T20:37:14.860Z,1.00
2023-02-12T20:39:22.990Z,1.00
2023-02-12T20:41:31.617Z,1.00
2023-02-12T20:43:37.754Z,1.00
2023-02-12T20:45:43.401Z,1.00
2023-02-12T20:47:48.686Z,1.00
2023-02-12T20:49:53.646Z,1.00
2023-02-12T20:51:59.355Z,1.00
2023-02-12T20:54:07.323Z,1.00
2023-02-12T20:56:15.908Z,1.00
2023-02-12T20:58:20.851Z,1.00
2023-02-12T21:00:26.316Z,1.00
2023-02-12T21:02:32.141Z,1.00
2023-02-12T21:04:37.336Z,1.00
2023-02-12T21:06:44.807Z,1.00
2023-02-12T21:08:51.483Z,1.00
2023-02-12T21:11:05.124Z,1.00
2023-02-12T21:13:10.591Z,1.00
2023-02-12T21:15:15.636Z,1.00
2023-02-12T21:17:20.622Z,1.00
2023-02-12T21:19:26.872Z,1.00
2023-02-12T21:21:34.567Z,1.00
2023-02-12T21:23:40.942Z,1.00
2023-02-12T21:25:46.587Z,1.00
2023-02-12T21:27:54.138Z,1.00
2023-02-12T21:29:59.649Z,1.00
2023-02-12T21:32:04.748Z,1.00
2023-02-12T21:34:12.371Z,1.00
2023-02-12T21:36:20.258Z,1.00
2023-02-12T21:38:25.506Z,1.00
2023-02-12T21:42:37.432Z,1.00
2023-02-12T21:44:45.198Z,1.00
2023-02-12T21:46:50.265Z,1.00
2023-02-12T21:48:55.681Z,1.00
2023-02-12T21:51:00.962Z,1.00
2023-02-12T21:53:05.970Z,1.00
2023-02-12T21:55:11.545Z,1.00
2023-02-12T21:57:19.899Z,1.00
2023-02-12T21:59:25.333Z,1.00
2023-02-12T22:01:37.216Z,1.00
2023-02-12T22:03:44.060Z,1.00
2023-02-12T22:05:50.242Z,1.00
2023-02-12T22:07:55.432Z,1.00
2023-02-12T22:10:01.618Z,1.00
2023-02-12T22:12:07.345Z,1.00
2023-02-12T22:14:16.692Z,1.00
2023-02-12T22:16:24.533Z,1.00
2023-02-12T22:18:31.941Z,1.00
2023-02-12T22:20:37.125Z,1.00
2023-02-12T22:22:42.123Z,1.00
2023-02-12T22:24:47.330Z,1.00
2023-02-12T22:26:53.084Z,1.00
2023-02-12T22:29:01.405Z,1.00
2023-02-12T22:31:09.363Z,1.00
2023-02-12T22:33:14.163Z,1.00
2023-02-12T22:35:22.179Z,3.10
2023-02-12T22:37:27.610Z,4.30
2023-02-12T22:39:32.824Z,3.70
2023-02-12T22:41:38.439Z,2.60
2023-02-12T22:43:44.821Z,1.00
2023-02-12T22:45:50.080Z,5.70
2023-02-12T22:47:55.412Z,5.30
2023-02-12T22:50:00.961Z,2.60
2023-02-12T22:52:09.093Z,1.00
2023-02-12T22:54:16.826Z,1.00
2023-02-12T22:56:22.512Z,1.00
2023-02-12T22:58:28.298Z,1.00
2023-02-12T23:00:33.837Z,4.40
2023-02-12T23:02:39.303Z,5.90
2023-02-12T23:04:44.250Z,5.00
2023-02-12T23:06:49.961Z,1.00
2023-02-12T23:09:00.743Z,1.00
2023-02-12T23:11:08.592Z,1.00
2023-02-12T23:13:27.967Z,1.00
2023-02-12T23:15:35.084Z,1.00
2023-02-12T23:17:40.335Z,1.00
2023-02-12T23:19:45.324Z,1.00
2023-02-12T23:21:50.821Z,1.00
2023-02-12T23:23:59.341Z,1.00
2023-02-12T23:26:04.687Z,1.00
2023-02-12T23:28:10.134Z,1.00
2023-02-12T23:30:17.773Z,1.00
2023-02-12T23:32:23.148Z,1.00
2023-02-12T23:34:28.433Z,1.00
2023-02-12T23:36:33.843Z,1.00
2023-02-12T23:38:38.832Z,1.00
2023-02-12T23:40:47.153Z,1.00
2023-02-12T23:42:52.848Z,1.00
2023-02-12T23:44:58.121Z,1.00
2023-02-12T23:47:03.132Z,1.00
2023-02-12T23:49:08.626Z,1.00
2023-02-12T23:51:14.191Z,1.00
2023-02-12T23:53:19.407Z,1.00
2023-02-12T23:55:24.686Z,1.00
2023-02-12T23:57:32.609Z,1.00
2023-02-12T23:59:37.850Z,1.00
